Terminal Aerodrome Forecast
Issued by NWS Missoula, MT

Home | Current Version | Previous Version | Text Only | Print | Product List | Glossary On
Versions: 1 2 3 4 5 6 7 8 9 10 11 12 13 14 15 16 17 18
000
FTUS45 KMSO 050827 AAB
TAFMSO
TAF AMD
KMSO 050827Z 0508/0606 11017KT P6SM -RA OVC060
     FM051600 31010KT 6SM -RA BR OVC040
     FM060100 VRB06KT P6SM VCSH OVC060=

USA.gov is the U.S. government's official web portal to all federal, state and local government web resources and services.